sensor_id;sensor_type;location;lat;lon;timestamp;P1;durP1;ratioP1;P2;durP2;ratioP2
50483;SDS011;36409;52.168;20.878;2023-02-28T00:00:42;33.73;;;13.77;;
50483;SDS011;36409;52.168;20.878;2023-02-28T00:03:21;32.37;;;13.67;;
50483;SDS011;36409;52.168;20.878;2023-02-28T00:05:52;39.92;;;15.03;;
50483;SDS011;36409;52.168;20.878;2023-02-28T00:08:21;37.30;;;15.70;;
50483;SDS011;36409;52.168;20.878;2023-02-28T00:10:50;26.03;;;12.13;;
50483;SDS011;36409;52.168;20.878;2023-02-28T00:13:19;24.33;;;11.10;;
50483;SDS011;36409;52.168;20.878;2023-02-28T00:15:58;20.00;;;9.50;;
50483;SDS011;36409;52.168;20.878;2023-02-28T00:18:28;25.63;;;11.87;;
50483;SDS011;36409;52.168;20.878;2023-02-28T00:20:58;26.40;;;12.27;;
50483;SDS011;36409;52.168;20.878;2023-02-28T00:23:28;31.30;;;12.97;;
50483;SDS011;36409;52.168;20.878;2023-02-28T00:25:57;30.77;;;12.60;;
50483;SDS011;36409;52.168;20.878;2023-02-28T00:28:26;24.90;;;10.60;;
50483;SDS011;36409;52.168;20.878;2023-02-28T00:30:55;26.30;;;10.87;;
50483;SDS011;36409;52.168;20.878;2023-02-28T00:33:24;21.93;;;10.00;;
50483;SDS011;36409;52.168;20.878;2023-02-28T00:36:01;23.23;;;9.83;;
50483;SDS011;36409;52.168;20.878;2023-02-28T00:38:32;23.13;;;9.50;;
50483;SDS011;36409;52.168;20.878;2023-02-28T00:41:02;20.20;;;8.93;;
50483;SDS011;36409;52.168;20.878;2023-02-28T00:43:33;17.40;;;8.60;;
50483;SDS011;36409;52.168;20.878;2023-02-28T00:46:04;21.40;;;9.60;;
50483;SDS011;36409;52.168;20.878;2023-02-28T00:48:34;19.50;;;8.53;;
50483;SDS011;36409;52.168;20.878;2023-02-28T00:51:04;17.30;;;8.90;;
50483;SDS011;36409;52.168;20.878;2023-02-28T00:53:34;17.83;;;8.80;;
50483;SDS011;36409;52.168;20.878;2023-02-28T00:56:04;19.90;;;9.00;;
50483;SDS011;36409;52.168;20.878;2023-02-28T00:58:33;17.60;;;8.27;;
50483;SDS011;36409;52.168;20.878;2023-02-28T01:01:03;16.57;;;8.10;;
50483;SDS011;36409;52.168;20.878;2023-02-28T01:03:32;19.00;;;8.10;;
50483;SDS011;36409;52.168;20.878;2023-02-28T01:06:03;18.50;;;8.63;;
50483;SDS011;36409;52.168;20.878;2023-02-28T01:08:32;16.60;;;8.07;;
50483;SDS011;36409;52.168;20.878;2023-02-28T01:11:07;16.10;;;8.87;;
50483;SDS011;36409;52.168;20.878;2023-02-28T01:13:40;15.47;;;7.90;;
50483;SDS011;36409;52.168;20.878;2023-02-28T01:16:13;14.87;;;8.33;;
50483;SDS011;36409;52.168;20.878;2023-02-28T01:18:47;16.93;;;8.53;;
50483;SDS011;36409;52.168;20.878;2023-02-28T01:21:18;16.33;;;8.13;;
50483;SDS011;36409;52.168;20.878;2023-02-28T01:23:49;16.77;;;7.97;;
50483;SDS011;36409;52.168;20.878;2023-02-28T01:26:21;15.97;;;7.60;;
50483;SDS011;36409;52.168;20.878;2023-02-28T01:28:50;16.43;;;7.53;;
50483;SDS011;36409;52.168;20.878;2023-02-28T01:31:21;21.40;;;8.45;;
50483;SDS011;36409;52.168;20.878;2023-02-28T01:33:51;19.53;;;9.17;;
50483;SDS011;36409;52.168;20.878;2023-02-28T01:36:21;16.27;;;8.10;;
50483;SDS011;36409;52.168;20.878;2023-02-28T01:38:51;17.13;;;8.43;;
50483;SDS011;36409;52.168;20.878;2023-02-28T01:41:22;18.40;;;8.53;;
50483;SDS011;36409;52.168;20.878;2023-02-28T01:44:01;18.80;;;8.10;;
50483;SDS011;36409;52.168;20.878;2023-02-28T01:46:33;21.70;;;9.75;;
50483;SDS011;36409;52.168;20.878;2023-02-28T01:49:07;20.40;;;9.10;;
50483;SDS011;36409;52.168;20.878;2023-02-28T01:51:41;17.03;;;8.20;;
50483;SDS011;36409;52.168;20.878;2023-02-28T01:54:20;19.73;;;9.43;;
50483;SDS011;36409;52.168;20.878;2023-02-28T01:56:53;22.30;;;9.37;;
50483;SDS011;36409;52.168;20.878;2023-02-28T01:59:26;18.40;;;8.57;;
50483;SDS011;36409;52.168;20.878;2023-02-28T02:01:57;18.40;;;9.77;;
50483;SDS011;36409;52.168;20.878;2023-02-28T02:04:30;20.83;;;9.30;;
50483;SDS011;36409;52.168;20.878;2023-02-28T02:07:05;23.17;;;10.37;;
50483;SDS011;36409;52.168;20.878;2023-02-28T02:09:35;20.13;;;9.60;;
50483;SDS011;36409;52.168;20.878;2023-02-28T02:12:06;19.30;;;9.07;;
50483;SDS011;36409;52.168;20.878;2023-02-28T02:14:46;22.80;;;10.57;;
50483;SDS011;36409;52.168;20.878;2023-02-28T02:17:30;26.20;;;11.33;;
50483;SDS011;36409;52.168;20.878;2023-02-28T02:20:14;27.10;;;10.43;;
50483;SDS011;36409;52.168;20.878;2023-02-28T02:23:26;20.60;;;9.57;;
50483;SDS011;36409;52.168;20.878;2023-02-28T02:26:30;21.30;;;10.00;;
50483;SDS011;36409;52.168;20.878;2023-02-28T02:32:47;24.00;;;9.83;;
50483;SDS011;36409;52.168;20.878;2023-02-28T02:35:39;25.60;;;10.70;;
50483;SDS011;36409;52.168;20.878;2023-02-28T02:38:27;21.10;;;10.30;;
50483;SDS011;36409;52.168;20.878;2023-02-28T02:41:04;25.40;;;11.73;;
50483;SDS011;36409;52.168;20.878;2023-02-28T02:43:43;24.37;;;10.87;;
50483;SDS011;36409;52.168;20.878;2023-02-28T02:46:19;21.77;;;10.07;;
50483;SDS011;36409;52.168;20.878;2023-02-28T02:49:03;22.87;;;10.67;;
50483;SDS011;36409;52.168;20.878;2023-02-28T02:54:08;30.33;;;10.93;;
50483;SDS011;36409;52.168;20.878;2023-02-28T02:56:45;24.77;;;11.53;;
50483;SDS011;36409;52.168;20.878;2023-02-28T02:59:19;18.30;;;9.30;;
50483;SDS011;36409;52.168;20.878;2023-02-28T03:01:52;22.63;;;10.47;;
50483;SDS011;36409;52.168;20.878;2023-02-28T03:04:26;24.05;;;9.60;;
50483;SDS011;36409;52.168;20.878;2023-02-28T03:06:59;21.20;;;10.23;;
50483;SDS011;36409;52.168;20.878;2023-02-28T03:09:28;22.97;;;10.27;;
50483;SDS011;36409;52.168;20.878;2023-02-28T03:12:00;22.15;;;10.45;;
50483;SDS011;36409;52.168;20.878;2023-02-28T03:14:34;23.70;;;11.13;;
50483;SDS011;36409;52.168;20.878;2023-02-28T03:20:02;26.33;;;11.37;;
50483;SDS011;36409;52.168;20.878;2023-02-28T03:22:44;23.87;;;11.20;;
50483;SDS011;36409;52.168;20.878;2023-02-28T03:25:26;28.57;;;11.57;;
50483;SDS011;36409;52.168;20.878;2023-02-28T03:28:04;26.33;;;11.80;;
50483;SDS011;36409;52.168;20.878;2023-02-28T03:30:44;24.27;;;11.67;;
50483;SDS011;36409;52.168;20.878;2023-02-28T03:33:22;23.40;;;11.77;;
50483;SDS011;36409;52.168;20.878;2023-02-28T03:35:56;29.93;;;12.23;;
50483;SDS011;36409;52.168;20.878;2023-02-28T03:38:31;26.17;;;11.47;;
50483;SDS011;36409;52.168;20.878;2023-02-28T03:41:06;27.37;;;11.70;;
50483;SDS011;36409;52.168;20.878;2023-02-28T03:43:43;28.97;;;11.87;;
50483;SDS011;36409;52.168;20.878;2023-02-28T03:46:18;28.60;;;12.33;;
50483;SDS011;36409;52.168;20.878;2023-02-28T03:48:52;27.20;;;12.03;;
50483;SDS011;36409;52.168;20.878;2023-02-28T03:51:24;24.73;;;11.83;;
50483;SDS011;36409;52.168;20.878;2023-02-28T03:53:57;26.93;;;12.10;;
50483;SDS011;36409;52.168;20.878;2023-02-28T03:56:31;26.90;;;12.60;;
50483;SDS011;36409;52.168;20.878;2023-02-28T03:59:06;27.07;;;12.43;;
50483;SDS011;36409;52.168;20.878;2023-02-28T04:01:41;32.03;;;14.40;;
50483;SDS011;36409;52.168;20.878;2023-02-28T04:04:17;25.55;;;11.60;;
50483;SDS011;36409;52.168;20.878;2023-02-28T04:06:49;26.63;;;11.60;;
50483;SDS011;36409;52.168;20.878;2023-02-28T04:09:19;27.93;;;12.10;;
50483;SDS011;36409;52.168;20.878;2023-02-28T04:11:50;29.80;;;13.57;;
50483;SDS011;36409;52.168;20.878;2023-02-28T04:14:20;23.00;;;12.23;;
50483;SDS011;36409;52.168;20.878;2023-02-28T04:16:52;30.33;;;12.77;;
50483;SDS011;36409;52.168;20.878;2023-02-28T04:19:22;24.57;;;11.83;;
50483;SDS011;36409;52.168;20.878;2023-02-28T04:21:54;26.65;;;12.95;;
50483;SDS011;36409;52.168;20.878;2023-02-28T04:24:25;23.27;;;11.03;;
50483;SDS011;36409;52.168;20.878;2023-02-28T04:26:56;28.83;;;12.07;;
50483;SDS011;36409;52.168;20.878;2023-02-28T04:29:26;27.27;;;12.57;;
50483;SDS011;36409;52.168;20.878;2023-02-28T04:31:58;33.97;;;13.50;;
50483;SDS011;36409;52.168;20.878;2023-02-28T04:34:30;38.50;;;14.90;;
50483;SDS011;36409;52.168;20.878;2023-02-28T04:37:00;38.43;;;14.70;;
50483;SDS011;36409;52.168;20.878;2023-02-28T04:39:41;26.80;;;12.23;;
50483;SDS011;36409;52.168;20.878;2023-02-28T04:42:12;34.00;;;14.05;;
50483;SDS011;36409;52.168;20.878;2023-02-28T04:44:41;31.60;;;14.27;;
50483;SDS011;36409;52.168;20.878;2023-02-28T04:47:11;35.50;;;14.33;;
50483;SDS011;36409;52.168;20.878;2023-02-28T04:49:46;28.87;;;13.00;;
50483;SDS011;36409;52.168;20.878;2023-02-28T04:52:15;31.63;;;14.03;;
50483;SDS011;36409;52.168;20.878;2023-02-28T04:54:44;31.73;;;14.00;;
50483;SDS011;36409;52.168;20.878;2023-02-28T04:57:14;38.53;;;14.50;;
50483;SDS011;36409;52.168;20.878;2023-02-28T04:59:43;31.73;;;15.50;;
50483;SDS011;36409;52.168;20.878;2023-02-28T05:02:13;29.97;;;14.53;;
50483;SDS011;36409;52.168;20.878;2023-02-28T05:04:42;33.00;;;14.63;;
50483;SDS011;36409;52.168;20.878;2023-02-28T05:07:13;28.90;;;14.83;;
50483;SDS011;36409;52.168;20.878;2023-02-28T05:09:43;31.10;;;14.07;;
50483;SDS011;36409;52.168;20.878;2023-02-28T05:12:12;29.57;;;14.10;;
50483;SDS011;36409;52.168;20.878;2023-02-28T05:14:42;34.83;;;15.47;;
50483;SDS011;36409;52.168;20.878;2023-02-28T05:17:14;34.47;;;15.67;;
50483;SDS011;36409;52.168;20.878;2023-02-28T05:19:44;34.17;;;16.63;;
50483;SDS011;36409;52.168;20.878;2023-02-28T05:22:14;34.30;;;16.20;;
50483;SDS011;36409;52.168;20.878;2023-02-28T05:24:45;31.50;;;14.57;;
50483;SDS011;36409;52.168;20.878;2023-02-28T05:27:14;33.50;;;14.70;;
50483;SDS011;36409;52.168;20.878;2023-02-28T05:29:44;37.67;;;15.93;;
50483;SDS011;36409;52.168;20.878;2023-02-28T05:32:14;36.27;;;15.47;;
50483;SDS011;36409;52.168;20.878;2023-02-28T05:34:44;30.97;;;15.27;;
50483;SDS011;36409;52.168;20.878;2023-02-28T05:37:14;33.10;;;16.20;;
50483;SDS011;36409;52.168;20.878;2023-02-28T05:39:45;37.17;;;16.27;;
50483;SDS011;36409;52.168;20.878;2023-02-28T05:42:14;37.17;;;17.10;;
50483;SDS011;36409;52.168;20.878;2023-02-28T05:44:44;39.43;;;17.53;;
50483;SDS011;36409;52.168;20.878;2023-02-28T05:47:13;36.87;;;18.07;;
50483;SDS011;36409;52.168;20.878;2023-02-28T05:49:45;38.37;;;17.57;;
50483;SDS011;36409;52.168;20.878;2023-02-28T05:52:14;35.67;;;17.37;;
50483;SDS011;36409;52.168;20.878;2023-02-28T05:54:46;42.83;;;19.00;;
50483;SDS011;36409;52.168;20.878;2023-02-28T05:57:15;37.77;;;16.57;;
50483;SDS011;36409;52.168;20.878;2023-02-28T05:59:54;37.55;;;17.90;;
50483;SDS011;36409;52.168;20.878;2023-02-28T06:05:09;35.27;;;15.87;;
50483;SDS011;36409;52.168;20.878;2023-02-28T06:07:45;40.70;;;16.53;;
50483;SDS011;36409;52.168;20.878;2023-02-28T06:10:15;43.10;;;19.33;;
50483;SDS011;36409;52.168;20.878;2023-02-28T06:12:45;44.07;;;20.57;;
50483;SDS011;36409;52.168;20.878;2023-02-28T06:15:15;47.17;;;20.00;;
50483;SDS011;36409;52.168;20.878;2023-02-28T06:17:45;44.17;;;19.00;;
50483;SDS011;36409;52.168;20.878;2023-02-28T06:20:14;46.10;;;19.05;;
50483;SDS011;36409;52.168;20.878;2023-02-28T06:22:45;42.30;;;19.17;;
50483;SDS011;36409;52.168;20.878;2023-02-28T06:25:17;54.17;;;19.50;;
50483;SDS011;36409;52.168;20.878;2023-02-28T06:27:47;39.80;;;18.90;;
50483;SDS011;36409;52.168;20.878;2023-02-28T06:30:17;37.93;;;18.13;;
50483;SDS011;36409;52.168;20.878;2023-02-28T06:32:51;41.60;;;18.27;;
50483;SDS011;36409;52.168;20.878;2023-02-28T06:35:21;37.17;;;18.10;;
50483;SDS011;36409;52.168;20.878;2023-02-28T06:37:51;44.63;;;19.17;;
50483;SDS011;36409;52.168;20.878;2023-02-28T06:40:21;40.97;;;19.00;;
50483;SDS011;36409;52.168;20.878;2023-02-28T06:42:53;45.40;;;17.77;;
50483;SDS011;36409;52.168;20.878;2023-02-28T06:45:24;41.97;;;17.90;;
50483;SDS011;36409;52.168;20.878;2023-02-28T06:47:54;45.57;;;19.80;;
50483;SDS011;36409;52.168;20.878;2023-02-28T06:50:25;41.53;;;17.97;;
50483;SDS011;36409;52.168;20.878;2023-02-28T06:52:59;43.47;;;17.87;;
50483;SDS011;36409;52.168;20.878;2023-02-28T06:55:29;45.33;;;18.20;;
50483;SDS011;36409;52.168;20.878;2023-02-28T06:57:58;34.75;;;15.20;;
50483;SDS011;36409;52.168;20.878;2023-02-28T07:00:27;29.93;;;13.87;;
50483;SDS011;36409;52.168;20.878;2023-02-28T07:02:57;34.50;;;13.90;;
50483;SDS011;36409;52.168;20.878;2023-02-28T07:05:29;26.47;;;12.87;;
50483;SDS011;36409;52.168;20.878;2023-02-28T07:08:00;31.87;;;13.57;;
50483;SDS011;36409;52.168;20.878;2023-02-28T07:10:40;26.77;;;12.00;;
50483;SDS011;36409;52.168;20.878;2023-02-28T07:15:40;24.97;;;10.23;;
50483;SDS011;36409;52.168;20.878;2023-02-28T07:18:12;18.60;;;9.27;;
50483;SDS011;36409;52.168;20.878;2023-02-28T07:20:41;22.57;;;10.07;;
50483;SDS011;36409;52.168;20.878;2023-02-28T07:23:12;19.53;;;8.73;;
50483;SDS011;36409;52.168;20.878;2023-02-28T07:25:42;20.30;;;10.00;;
50483;SDS011;36409;52.168;20.878;2023-02-28T07:28:13;28.23;;;11.07;;
50483;SDS011;36409;52.168;20.878;2023-02-28T07:30:42;23.23;;;10.37;;
50483;SDS011;36409;52.168;20.878;2023-02-28T07:33:13;22.50;;;9.80;;
50483;SDS011;36409;52.168;20.878;2023-02-28T07:35:44;21.23;;;8.67;;
50483;SDS011;36409;52.168;20.878;2023-02-28T07:38:16;22.77;;;10.77;;
50483;SDS011;36409;52.168;20.878;2023-02-28T07:40:45;27.00;;;12.30;;
50483;SDS011;36409;52.168;20.878;2023-02-28T07:43:15;22.20;;;11.30;;
50483;SDS011;36409;52.168;20.878;2023-02-28T07:45:45;33.93;;;14.73;;
50483;SDS011;36409;52.168;20.878;2023-02-28T07:48:14;22.17;;;11.17;;
50483;SDS011;36409;52.168;20.878;2023-02-28T07:50:45;16.27;;;9.17;;
50483;SDS011;36409;52.168;20.878;2023-02-28T07:53:23;10.30;;;5.97;;
50483;SDS011;36409;52.168;20.878;2023-02-28T07:55:54;16.70;;;8.13;;
50483;SDS011;36409;52.168;20.878;2023-02-28T07:58:24;13.23;;;7.17;;
50483;SDS011;36409;52.168;20.878;2023-02-28T08:00:54;10.63;;;6.00;;
50483;SDS011;36409;52.168;20.878;2023-02-28T08:03:24;13.80;;;6.07;;
50483;SDS011;36409;52.168;20.878;2023-02-28T08:05:53;11.60;;;5.60;;
50483;SDS011;36409;52.168;20.878;2023-02-28T08:08:22;8.83;;;5.47;;
50483;SDS011;36409;52.168;20.878;2023-02-28T08:10:51;10.43;;;6.27;;
50483;SDS011;36409;52.168;20.878;2023-02-28T08:13:23;12.80;;;7.03;;
50483;SDS011;36409;52.168;20.878;2023-02-28T08:15:52;9.50;;;5.30;;
50483;SDS011;36409;52.168;20.878;2023-02-28T08:18:22;15.23;;;6.30;;
50483;SDS011;36409;52.168;20.878;2023-02-28T08:20:51;14.17;;;5.60;;
50483;SDS011;36409;52.168;20.878;2023-02-28T08:23:20;10.57;;;6.20;;
50483;SDS011;36409;52.168;20.878;2023-02-28T08:25:53;15.47;;;5.73;;
50483;SDS011;36409;52.168;20.878;2023-02-28T08:28:22;12.03;;;6.23;;
50483;SDS011;36409;52.168;20.878;2023-02-28T08:30:54;12.93;;;5.87;;
50483;SDS011;36409;52.168;20.878;2023-02-28T08:33:23;17.87;;;11.43;;
50483;SDS011;36409;52.168;20.878;2023-02-28T08:35:54;30.80;;;21.33;;
50483;SDS011;36409;52.168;20.878;2023-02-28T08:38:24;12.13;;;6.73;;
50483;SDS011;36409;52.168;20.878;2023-02-28T08:40:57;11.43;;;6.80;;
50483;SDS011;36409;52.168;20.878;2023-02-28T08:43:28;12.67;;;6.73;;
50483;SDS011;36409;52.168;20.878;2023-02-28T08:45:58;12.70;;;7.57;;
50483;SDS011;36409;52.168;20.878;2023-02-28T08:48:27;12.83;;;6.90;;
50483;SDS011;36409;52.168;20.878;2023-02-28T08:50:58;13.93;;;7.10;;
50483;SDS011;36409;52.168;20.878;2023-02-28T08:53:35;12.40;;;6.83;;
50483;SDS011;36409;52.168;20.878;2023-02-28T08:56:06;12.33;;;6.30;;
50483;SDS011;36409;52.168;20.878;2023-02-28T08:58:36;15.87;;;7.10;;
50483;SDS011;36409;52.168;20.878;2023-02-28T09:01:09;12.47;;;6.20;;
50483;SDS011;36409;52.168;20.878;2023-02-28T09:06:08;10.83;;;5.67;;
50483;SDS011;36409;52.168;20.878;2023-02-28T09:08:40;12.37;;;6.20;;
50483;SDS011;36409;52.168;20.878;2023-02-28T09:11:10;12.90;;;5.53;;
50483;SDS011;36409;52.168;20.878;2023-02-28T09:13:40;12.13;;;6.23;;
50483;SDS011;36409;52.168;20.878;2023-02-28T09:16:11;10.10;;;6.07;;
50483;SDS011;36409;52.168;20.878;2023-02-28T09:18:42;16.03;;;6.37;;
50483;SDS011;36409;52.168;20.878;2023-02-28T09:21:15;14.17;;;6.23;;
50483;SDS011;36409;52.168;20.878;2023-02-28T09:23:47;10.37;;;5.47;;
50483;SDS011;36409;52.168;20.878;2023-02-28T09:26:18;11.70;;;5.90;;
50483;SDS011;36409;52.168;20.878;2023-02-28T09:28:49;9.73;;;5.30;;
50483;SDS011;36409;52.168;20.878;2023-02-28T09:31:21;13.53;;;5.67;;
50483;SDS011;36409;52.168;20.878;2023-02-28T09:33:53;10.83;;;6.27;;
50483;SDS011;36409;52.168;20.878;2023-02-28T09:36:26;9.77;;;5.20;;
50483;SDS011;36409;52.168;20.878;2023-02-28T09:39:11;12.20;;;5.70;;
50483;SDS011;36409;52.168;20.878;2023-02-28T09:41:43;13.07;;;5.47;;
50483;SDS011;36409;52.168;20.878;2023-02-28T09:44:19;11.27;;;5.10;;
50483;SDS011;36409;52.168;20.878;2023-02-28T09:46:55;10.23;;;5.63;;
50483;SDS011;36409;52.168;20.878;2023-02-28T09:49:34;9.85;;;5.50;;
50483;SDS011;36409;52.168;20.878;2023-02-28T09:52:10;10.57;;;5.73;;
50483;SDS011;36409;52.168;20.878;2023-02-28T09:54:41;11.68;;;6.30;;
50483;SDS011;36409;52.168;20.878;2023-02-28T09:57:14;9.77;;;4.97;;
50483;SDS011;36409;52.168;20.878;2023-02-28T09:59:51;10.10;;;5.47;;
50483;SDS011;36409;52.168;20.878;2023-02-28T10:02:48;12.00;;;6.57;;
50483;SDS011;36409;52.168;20.878;2023-02-28T10:05:41;13.87;;;6.67;;
50483;SDS011;36409;52.168;20.878;2023-02-28T10:08:19;9.40;;;5.53;;
50483;SDS011;36409;52.168;20.878;2023-02-28T10:10:55;11.03;;;6.37;;
50483;SDS011;36409;52.168;20.878;2023-02-28T10:13:26;10.57;;;5.83;;
50483;SDS011;36409;52.168;20.878;2023-02-28T10:16:03;11.23;;;6.47;;
50483;SDS011;36409;52.168;20.878;2023-02-28T10:18:39;10.80;;;6.20;;
50483;SDS011;36409;52.168;20.878;2023-02-28T10:21:16;14.67;;;7.17;;
50483;SDS011;36409;52.168;20.878;2023-02-28T10:23:48;11.43;;;6.90;;
50483;SDS011;36409;52.168;20.878;2023-02-28T10:26:21;14.77;;;6.87;;
50483;SDS011;36409;52.168;20.878;2023-02-28T10:28:56;13.90;;;6.93;;
50483;SDS011;36409;52.168;20.878;2023-02-28T10:31:25;14.03;;;7.07;;
50483;SDS011;36409;52.168;20.878;2023-02-28T10:33:55;13.03;;;7.17;;
50483;SDS011;36409;52.168;20.878;2023-02-28T10:36:25;14.63;;;7.33;;
50483;SDS011;36409;52.168;20.878;2023-02-28T10:38:57;12.10;;;7.17;;
50483;SDS011;36409;52.168;20.878;2023-02-28T10:41:28;11.60;;;6.93;;
50483;SDS011;36409;52.168;20.878;2023-02-28T10:44:13;15.00;;;7.03;;
50483;SDS011;36409;52.168;20.878;2023-02-28T10:46:45;11.37;;;6.50;;
50483;SDS011;36409;52.168;20.878;2023-02-28T10:49:19;13.20;;;7.30;;
50483;SDS011;36409;52.168;20.878;2023-02-28T10:51:51;11.17;;;6.60;;
50483;SDS011;36409;52.168;20.878;2023-02-28T10:54:26;14.58;;;7.20;;
50483;SDS011;36409;52.168;20.878;2023-02-28T10:57:08;14.03;;;7.40;;
50483;SDS011;36409;52.168;20.878;2023-02-28T10:59:46;14.53;;;7.20;;
50483;SDS011;36409;52.168;20.878;2023-02-28T11:02:30;14.18;;;6.92;;
50483;SDS011;36409;52.168;20.878;2023-02-28T11:05:01;13.43;;;6.97;;
50483;SDS011;36409;52.168;20.878;2023-02-28T11:07:51;18.00;;;7.60;;
50483;SDS011;36409;52.168;20.878;2023-02-28T11:10:22;11.60;;;6.20;;
50483;SDS011;36409;52.168;20.878;2023-02-28T11:12:55;11.73;;;6.37;;
50483;SDS011;36409;52.168;20.878;2023-02-28T11:15:28;16.77;;;6.95;;
50483;SDS011;36409;52.168;20.878;2023-02-28T11:18:17;14.33;;;7.87;;
50483;SDS011;36409;52.168;20.878;2023-02-28T11:20:52;11.17;;;6.37;;
50483;SDS011;36409;52.168;20.878;2023-02-28T11:23:24;11.00;;;6.03;;
50483;SDS011;36409;52.168;20.878;2023-02-28T11:26:01;14.53;;;8.23;;
50483;SDS011;36409;52.168;20.878;2023-02-28T11:28:39;16.00;;;8.23;;
50483;SDS011;36409;52.168;20.878;2023-02-28T11:31:17;19.13;;;9.90;;
50483;SDS011;36409;52.168;20.878;2023-02-28T11:33:52;16.87;;;8.33;;
50483;SDS011;36409;52.168;20.878;2023-02-28T11:36:26;13.27;;;7.70;;
50483;SDS011;36409;52.168;20.878;2023-02-28T11:39:04;12.90;;;7.07;;
50483;SDS011;36409;52.168;20.878;2023-02-28T11:41:46;14.60;;;7.63;;
50483;SDS011;36409;52.168;20.878;2023-02-28T11:44:35;16.40;;;7.20;;
50483;SDS011;36409;52.168;20.878;2023-02-28T11:47:25;14.77;;;7.23;;
50483;SDS011;36409;52.168;20.878;2023-02-28T11:50:11;10.40;;;6.57;;
50483;SDS011;36409;52.168;20.878;2023-02-28T11:52:52;11.43;;;6.20;;
50483;SDS011;36409;52.168;20.878;2023-02-28T11:55:25;10.13;;;6.57;;
50483;SDS011;36409;52.168;20.878;2023-02-28T11:58:13;11.73;;;6.80;;
50483;SDS011;36409;52.168;20.878;2023-02-28T12:01:00;13.43;;;6.70;;
50483;SDS011;36409;52.168;20.878;2023-02-28T12:03:42;12.57;;;6.57;;
50483;SDS011;36409;52.168;20.878;2023-02-28T12:06:18;34.47;;;15.50;;
50483;SDS011;36409;52.168;20.878;2023-02-28T12:09:00;17.10;;;9.33;;
50483;SDS011;36409;52.168;20.878;2023-02-28T12:11:47;20.47;;;10.77;;
50483;SDS011;36409;52.168;20.878;2023-02-28T12:17:22;14.77;;;7.13;;
50483;SDS011;36409;52.168;20.878;2023-02-28T12:20:02;17.27;;;8.13;;
50483;SDS011;36409;52.168;20.878;2023-02-28T12:28:48;13.73;;;6.93;;
50483;SDS011;36409;52.168;20.878;2023-02-28T12:31:56;13.07;;;7.63;;
50483;SDS011;36409;52.168;20.878;2023-02-28T12:35:16;13.43;;;7.63;;
50483;SDS011;36409;52.168;20.878;2023-02-28T12:37:52;15.57;;;9.23;;
50483;SDS011;36409;52.168;20.878;2023-02-28T12:40:32;15.60;;;8.83;;
50483;SDS011;36409;52.168;20.878;2023-02-28T12:43:14;22.30;;;8.75;;
50483;SDS011;36409;52.168;20.878;2023-02-28T12:45:46;14.77;;;7.83;;
50483;SDS011;36409;52.168;20.878;2023-02-28T12:48:21;13.67;;;7.27;;
50483;SDS011;36409;52.168;20.878;2023-02-28T12:50:55;12.47;;;7.23;;
50483;SDS011;36409;52.168;20.878;2023-02-28T12:53:27;18.17;;;8.20;;
50483;SDS011;36409;52.168;20.878;2023-02-28T12:56:07;14.07;;;8.47;;
50483;SDS011;36409;52.168;20.878;2023-02-28T12:58:47;14.50;;;7.40;;
50483;SDS011;36409;52.168;20.878;2023-02-28T13:01:28;12.15;;;7.22;;
50483;SDS011;36409;52.168;20.878;2023-02-28T13:04:24;15.43;;;7.27;;
50483;SDS011;36409;52.168;20.878;2023-02-28T13:07:10;23.50;;;8.33;;
50483;SDS011;36409;52.168;20.878;2023-02-28T13:10:02;19.00;;;8.13;;
50483;SDS011;36409;52.168;20.878;2023-02-28T13:12:35;15.63;;;7.78;;
50483;SDS011;36409;52.168;20.878;2023-02-28T13:15:19;15.03;;;8.20;;
50483;SDS011;36409;52.168;20.878;2023-02-28T13:17:52;14.07;;;7.90;;
50483;SDS011;36409;52.168;20.878;2023-02-28T13:20:25;15.75;;;7.75;;
50483;SDS011;36409;52.168;20.878;2023-02-28T13:22:59;14.50;;;7.13;;
50483;SDS011;36409;52.168;20.878;2023-02-28T13:34:49;13.23;;;7.03;;
50483;SDS011;36409;52.168;20.878;2023-02-28T13:37:44;13.63;;;6.93;;
50483;SDS011;36409;52.168;20.878;2023-02-28T13:40:29;12.17;;;6.53;;
50483;SDS011;36409;52.168;20.878;2023-02-28T13:43:07;14.33;;;7.23;;
50483;SDS011;36409;52.168;20.878;2023-02-28T13:45:37;10.93;;;6.57;;
50483;SDS011;36409;52.168;20.878;2023-02-28T13:48:16;14.30;;;6.93;;
50483;SDS011;36409;52.168;20.878;2023-02-28T13:50:47;17.03;;;7.73;;
50483;SDS011;36409;52.168;20.878;2023-02-28T13:53:32;14.83;;;8.10;;
50483;SDS011;36409;52.168;20.878;2023-02-28T13:56:16;17.40;;;9.00;;
50483;SDS011;36409;52.168;20.878;2023-02-28T13:59:12;15.43;;;8.07;;
50483;SDS011;36409;52.168;20.878;2023-02-28T14:01:59;13.30;;;7.47;;
50483;SDS011;36409;52.168;20.878;2023-02-28T14:07:36;13.37;;;7.43;;
50483;SDS011;36409;52.168;20.878;2023-02-28T14:10:22;16.60;;;7.70;;
50483;SDS011;36409;52.168;20.878;2023-02-28T14:12:56;18.93;;;8.67;;
50483;SDS011;36409;52.168;20.878;2023-02-28T14:15:39;16.33;;;8.60;;
50483;SDS011;36409;52.168;20.878;2023-02-28T14:18:15;15.00;;;8.40;;
50483;SDS011;36409;52.168;20.878;2023-02-28T14:20:49;19.73;;;8.10;;
50483;SDS011;36409;52.168;20.878;2023-02-28T14:23:30;14.10;;;7.87;;
50483;SDS011;36409;52.168;20.878;2023-02-28T14:26:23;14.87;;;7.93;;
50483;SDS011;36409;52.168;20.878;2023-02-28T14:29:08;15.30;;;7.40;;
50483;SDS011;36409;52.168;20.878;2023-02-28T14:31:53;15.10;;;7.83;;
50483;SDS011;36409;52.168;20.878;2023-02-28T14:34:30;12.23;;;6.87;;
50483;SDS011;36409;52.168;20.878;2023-02-28T14:37:10;14.30;;;7.47;;
50483;SDS011;36409;52.168;20.878;2023-02-28T14:39:44;13.27;;;7.07;;
50483;SDS011;36409;52.168;20.878;2023-02-28T14:42:28;12.77;;;6.73;;
50483;SDS011;36409;52.168;20.878;2023-02-28T14:45:00;13.40;;;7.10;;
50483;SDS011;36409;52.168;20.878;2023-02-28T14:47:31;14.90;;;7.03;;
50483;SDS011;36409;52.168;20.878;2023-02-28T14:50:03;17.20;;;7.40;;
50483;SDS011;36409;52.168;20.878;2023-02-28T14:52:46;15.73;;;7.97;;
50483;SDS011;36409;52.168;20.878;2023-02-28T14:55:19;16.90;;;8.70;;
50483;SDS011;36409;52.168;20.878;2023-02-28T14:57:53;15.30;;;7.77;;
50483;SDS011;36409;52.168;20.878;2023-02-28T15:00:25;26.13;;;7.67;;
50483;SDS011;36409;52.168;20.878;2023-02-28T15:02:56;15.27;;;7.93;;
50483;SDS011;36409;52.168;20.878;2023-02-28T15:05:34;17.50;;;7.83;;
50483;SDS011;36409;52.168;20.878;2023-02-28T15:08:10;14.00;;;8.40;;
50483;SDS011;36409;52.168;20.878;2023-02-28T15:10:42;16.20;;;7.63;;
50483;SDS011;36409;52.168;20.878;2023-02-28T15:13:15;14.90;;;7.73;;
50483;SDS011;36409;52.168;20.878;2023-02-28T15:15:47;18.10;;;8.30;;
50483;SDS011;36409;52.168;20.878;2023-02-28T15:18:37;17.63;;;9.13;;
50483;SDS011;36409;52.168;20.878;2023-02-28T15:21:14;16.90;;;9.70;;
50483;SDS011;36409;52.168;20.878;2023-02-28T15:23:48;18.87;;;8.97;;
50483;SDS011;36409;52.168;20.878;2023-02-28T15:26:23;20.63;;;8.27;;
50483;SDS011;36409;52.168;20.878;2023-02-28T15:28:59;16.40;;;8.90;;
50483;SDS011;36409;52.168;20.878;2023-02-28T15:31:31;18.27;;;9.37;;
50483;SDS011;36409;52.168;20.878;2023-02-28T15:34:26;16.60;;;8.87;;
50483;SDS011;36409;52.168;20.878;2023-02-28T15:37:29;15.77;;;9.43;;